Time;durP1;ratioP1;P1;durP2;ratioP2;P2;SDS_P1;SDS_P2;PMS_P1;PMS_P2;Temp;Humidity;BMP_temperature;BMP_pressure;BME280_temperature;BME280_humidity;BME280_pressure;Samples;Min_cycle;Max_cycle;Signal;HPM_P1;HPM_P2
2023/12/08 00:01:31;;;;;;;16.87;9.37;;;;;;;-0.99;100.00;100666.13;5108103;28;20226;-77
2023/12/08 00:03:58;;;;;;;12.97;9.27;;;;;;;-0.99;100.00;100662.66;5101132;28;20220;-77
2023/12/08 00:06:24;;;;;;;14.77;9.80;;;;;;;-1.02;100.00;100652.22;5106729;28;20211;-78
2023/12/08 00:08:50;;;;;;;15.40;9.97;;;;;;;-1.05;100.00;100654.00;5105397;28;20207;-76
2023/12/08 00:11:17;;;;;;;14.40;9.43;;;;;;;-1.07;100.00;100655.78;5101853;28;20215;-77
2023/12/08 00:13:44;;;;;;;14.67;10.07;;;;;;;-1.07;100.00;100639.22;5105770;28;20207;-77
2023/12/08 00:16:11;;;;;;;16.03;10.40;;;;;;;-1.09;100.00;100625.34;5113029;28;20206;-78
2023/12/08 00:18:38;;;;;;;14.20;9.70;;;;;;;-1.11;100.00;100627.13;5105676;28;20692;-78
2023/12/08 00:21:05;;;;;;;15.50;11.17;;;;;;;-1.12;100.00;100625.41;5110091;28;20204;-79
2023/12/08 00:23:32;;;;;;;13.10;8.60;;;;;;;-1.13;100.00;100619.31;5111285;28;20208;-77
2023/12/08 00:25:58;;;;;;;15.77;10.23;;;;;;;-1.14;100.00;100607.13;5107517;28;20216;-77
2023/12/08 00:28:25;;;;;;;15.10;9.10;;;;;;;-1.14;100.00;100601.03;5112253;28;20200;-77
2023/12/08 00:30:51;;;;;;;14.23;9.63;;;;;;;-1.14;100.00;100595.81;5114886;28;20246;-76
2023/12/08 00:33:17;;;;;;;15.60;9.57;;;;;;;-1.15;100.00;100588.84;5113335;28;20207;-77
2023/12/08 00:35:48;;;;;;;13.53;8.63;;;;;;;-1.17;100.00;100588.88;5108982;28;20227;-78
2023/12/08 00:38:14;;;;;;;17.03;9.03;;;;;;;-1.17;100.00;100582.78;5108072;28;20349;-77
2023/12/08 00:40:41;;;;;;;13.70;8.70;;;;;;;-1.18;100.00;100584.53;5107399;28;20223;-77
2023/12/08 00:43:07;;;;;;;14.97;9.47;;;;;;;-1.17;100.00;100564.50;5104734;28;20204;-77
2023/12/08 00:45:34;;;;;;;11.90;8.53;;;;;;;-1.16;100.00;100558.38;5112399;28;20587;-77
2023/12/08 00:48:00;;;;;;;13.93;9.27;;;;;;;-1.18;100.00;100553.19;5110021;28;20620;-78
2023/12/08 00:50:27;;;;;;;15.27;9.70;;;;;;;-1.20;100.00;100546.25;5108458;28;20206;-78
2023/12/08 00:52:54;;;;;;;14.17;8.80;;;;;;;-1.21;100.00;100539.31;5104833;28;20592;-77
2023/12/08 00:55:21;;;;;;;13.20;8.97;;;;;;;-1.20;100.00;100535.81;5105104;28;20922;-78
2023/12/08 00:57:48;;;;;;;12.63;8.97;;;;;;;-1.21;100.00;100542.78;5105783;28;20203;-76
2023/12/08 01:00:17;;;;;;;14.50;9.13;;;;;;;-1.23;100.00;100543.69;5098035;28;20656;-77
2023/12/08 01:02:44;;;;;;;19.90;10.63;;;;;;;-1.23;100.00;100543.69;5110689;28;20214;-77
2023/12/08 01:05:10;;;;;;;17.27;11.00;;;;;;;-1.24;100.00;100534.97;5105933;28;20220;-78
2023/12/08 01:07:37;;;;;;;24.67;13.53;;;;;;;-1.23;100.00;100533.22;5106701;28;20196;-77
2023/12/08 01:10:07;;;;;;;25.87;13.97;;;;;;;-1.24;100.00;100539.34;5107923;28;20203;-78
2023/12/08 01:12:33;;;;;;;23.07;13.70;;;;;;;-1.24;100.00;100540.22;5114157;28;20679;-77
2023/12/08 01:15:00;;;;;;;18.50;12.10;;;;;;;-1.22;100.00;100545.41;5111552;28;20250;-77
2023/12/08 01:17:26;;;;;;;19.27;12.47;;;;;;;-1.23;100.00;100538.47;5112699;28;20204;-76
2023/12/08 01:19:53;;;;;;;17.03;10.00;;;;;;;-1.23;100.00;100539.31;5110333;28;20306;-77
2023/12/08 01:22:19;;;;;;;13.50;9.53;;;;;;;-1.23;100.00;100535.84;5106350;28;20207;-77
2023/12/08 01:24:45;;;;;;;16.63;9.67;;;;;;;-1.21;100.00;100541.91;5099420;28;20241;-76
2023/12/08 01:27:13;;;;;;;12.90;9.00;;;;;;;-1.19;100.00;100545.38;5107369;28;20210;-78
2023/12/08 01:29:40;;;;;;;13.87;8.83;;;;;;;-1.19;100.00;100534.91;5109278;28;20223;-77
2023/12/08 01:32:07;;;;;;;17.20;9.63;;;;;;;-1.16;100.00;100527.03;5111417;28;20215;-77
2023/12/08 01:34:33;;;;;;;12.87;8.90;;;;;;;-1.13;100.00;100526.97;5106145;28;20257;-78
2023/12/08 01:37:00;;;;;;;13.73;9.53;;;;;;;-1.15;100.00;100511.31;5112164;28;20219;-78
2023/12/08 01:39:26;;;;;;;13.87;9.53;;;;;;;-1.17;100.00;100507.00;5113893;28;20203;-76
2023/12/08 01:41:53;;;;;;;16.30;8.97;;;;;;;-1.20;100.00;100500.09;5104190;28;20204;-78
2023/12/08 01:44:20;;;;;;;12.73;9.10;;;;;;;-1.25;100.00;100487.97;5113286;28;20668;-79
2023/12/08 01:46:47;;;;;;;15.50;10.00;;;;;;;-1.25;100.00;100486.22;5113285;28;20195;-77
2023/12/08 01:49:15;;;;;;;13.50;9.60;;;;;;;-1.22;100.00;100480.09;5104842;28;20203;-77
2023/12/08 01:51:42;;;;;;;14.23;9.43;;;;;;;-1.20;100.00;100480.94;5106924;28;20224;-77
2023/12/08 01:54:08;;;;;;;16.40;9.90;;;;;;;-1.22;100.00;100472.25;5112748;28;20233;-77
2023/12/08 01:56:35;;;;;;;16.60;10.37;;;;;;;-1.22;100.00;100467.03;5106917;28;20195;-77
2023/12/08 01:59:02;;;;;;;15.30;9.30;;;;;;;-1.20;100.00;100460.88;5111146;28;20199;-77
2023/12/08 02:01:30;;;;;;;16.60;9.27;;;;;;;-1.19;100.00;100459.13;5101223;28;20211;-78
2023/12/08 02:03:57;;;;;;;13.50;8.97;;;;;;;-1.20;100.00;100445.22;5106359;28;20204;-77
2023/12/08 02:06:24;;;;;;;15.30;9.03;;;;;;;-1.22;100.00;100435.66;5107413;28;20200;-77
2023/12/08 02:08:50;;;;;;;16.47;9.60;;;;;;;-1.24;100.00;100427.84;5107245;28;20570;-77
2023/12/08 02:11:17;;;;;;;16.40;10.30;;;;;;;-1.25;100.00;100433.97;5108652;28;20230;-77
2023/12/08 02:13:44;;;;;;;14.03;9.03;;;;;;;-1.22;100.00;100440.91;5104442;28;20212;-78
2023/12/08 02:16:17;;;;;;;14.47;9.83;;;;;;;-1.21;100.00;100424.34;5110386;28;20585;-78
2023/12/08 02:18:45;;;;;;;17.47;10.27;;;;;;;-1.15;100.00;100429.44;5106696;28;20212;-77
2023/12/08 02:21:13;;;;;;;16.07;10.23;;;;;;;-1.18;100.00;100424.28;5107017;28;20211;-77
2023/12/08 02:23:43;;;;;;;13.97;9.27;;;;;;;-1.19;100.00;100417.31;5107035;28;20203;-78
2023/12/08 02:26:10;;;;;;;16.63;10.33;;;;;;;-1.16;100.00;100398.97;5107728;28;20208;-77
2023/12/08 02:28:36;;;;;;;17.57;10.13;;;;;;;-1.15;100.00;100400.72;5102111;28;20208;-78
2023/12/08 02:31:06;;;;;;;16.23;10.30;;;;;;;-1.15;100.00;100400.72;5104882;28;20227;-78
2023/12/08 02:33:33;;;;;;;18.63;10.87;;;;;;;-1.15;100.00;100400.72;5107269;28;20287;-77
2023/12/08 02:36:01;;;;;;;17.63;10.13;;;;;;;-1.15;100.00;100408.53;5109225;28;20231;-78
2023/12/08 02:38:29;;;;;;;17.70;10.43;;;;;;;-1.14;100.00;100410.28;5107754;28;20218;-78
2023/12/08 02:40:56;;;;;;;16.70;10.17;;;;;;;-1.15;100.00;100401.56;5108971;28;20199;-77
2023/12/08 02:43:23;;;;;;;17.00;11.13;;;;;;;-1.10;100.00;100404.09;5107392;28;20211;-77
2023/12/08 02:45:48;;;;;;;15.07;9.73;;;;;;;-1.11;100.00;100413.69;5109073;28;20230;-77
2023/12/08 02:48:15;;;;;;;15.63;10.07;;;;;;;-1.10;100.00;100412.81;5108417;28;20210;-77
2023/12/08 02:50:42;;;;;;;16.77;10.23;;;;;;;-1.10;100.00;100406.72;5106832;28;20519;-77
2023/12/08 02:53:09;;;;;;;19.37;10.73;;;;;;;-1.11;100.00;100405.84;5106220;28;20227;-77
2023/12/08 02:55:36;;;;;;;16.30;9.70;;;;;;;-1.11;100.00;100411.09;5104718;28;20223;-77
2023/12/08 02:58:04;;;;;;;17.20;10.97;;;;;;;-1.10;100.00;100420.66;5103143;28;20211;-77
2023/12/08 03:00:30;;;;;;;18.97;9.83;;;;;;;-1.09;100.00;100421.50;5107166;28;20576;-77
2023/12/08 03:02:56;;;;;;;15.60;10.10;;;;;;;-1.08;100.00;100418.00;5104889;28;20200;-78
2023/12/08 03:05:23;;;;;;;16.00;10.67;;;;;;;-1.09;100.00;100401.47;5108899;28;20215;-77
2023/12/08 03:07:49;;;;;;;18.60;10.73;;;;;;;-1.08;100.00;100397.09;5104275;28;20223;-78
2023/12/08 03:10:16;;;;;;;16.73;9.80;;;;;;;-1.07;100.00;100390.94;5111988;28;20207;-79
2023/12/08 03:12:43;;;;;;;17.27;9.50;;;;;;;-1.06;100.00;100390.06;5104381;28;20259;-78
2023/12/08 03:15:10;;;;;;;16.33;9.93;;;;;;;-1.06;100.00;100377.00;5105657;28;22129;-78
2023/12/08 03:17:37;;;;;;;15.27;9.07;;;;;;;-1.08;100.00;100360.50;5098520;28;20199;-77
2023/12/08 03:20:04;;;;;;;14.77;9.37;;;;;;;-1.06;100.00;100371.75;5109750;28;20217;-77
2023/12/08 03:22:31;;;;;;;16.93;10.73;;;;;;;-1.07;100.00;100373.50;5103317;28;20200;-78
2023/12/08 03:24:57;;;;;;;16.93;11.30;;;;;;;-1.06;100.00;100364.78;5110513;28;20700;-77
2023/12/08 03:27:24;;;;;;;16.67;10.57;;;;;;;-1.04;100.00;100372.59;5105304;28;20536;-77
2023/12/08 03:29:50;;;;;;;16.63;10.50;;;;;;;-1.02;100.00;100368.19;5106663;28;20572;-77
2023/12/08 03:32:18;;;;;;;16.70;9.90;;;;;;;-1.01;100.00;100356.84;5103341;28;20227;-78
2023/12/08 03:34:44;;;;;;;17.00;10.70;;;;;;;-0.99;100.00;100359.44;5104591;28;20227;-79
2023/12/08 03:37:11;;;;;;;14.10;9.20;;;;;;;-1.00;100.00;100344.66;5105466;28;20207;-78
2023/12/08 03:39:37;;;;;;;18.83;10.60;;;;;;;-1.01;100.00;100338.56;5112608;28;20203;-78
2023/12/08 03:42:04;;;;;;;15.83;9.63;;;;;;;-1.03;100.00;100329.03;5104234;28;20458;-78
2023/12/08 03:44:30;;;;;;;15.60;9.70;;;;;;;-1.03;100.00;100332.50;5108634;28;20240;-77
2023/12/08 03:46:57;;;;;;;16.20;10.27;;;;;;;-1.06;100.00;100329.94;5109583;28;20196;-77
2023/12/08 03:49:25;;;;;;;17.97;11.23;;;;;;;-1.08;100.00;100316.09;5116414;28;20210;-78
2023/12/08 03:51:51;;;;;;;14.57;10.20;;;;;;;-1.12;100.00;100324.88;5112663;28;20228;-79
2023/12/08 03:54:18;;;;;;;18.77;11.33;;;;;;;-1.09;100.00;100312.59;5111831;28;20215;-77
2023/12/08 03:56:44;;;;;;;14.90;8.77;;;;;;;-1.07;100.00;100287.28;5107890;28;20200;-79
2023/12/08 03:59:10;;;;;;;21.93;12.53;;;;;;;-1.11;100.00;100271.72;5116470;28;20207;-78
2023/12/08 04:01:37;;;;;;;17.30;11.70;;;;;;;-1.10;100.00;100289.97;5107916;28;20196;-77
2023/12/08 04:04:04;;;;;;;17.20;10.13;;;;;;;-1.05;100.00;100292.47;5106674;28;20220;-78
2023/12/08 04:06:31;;;;;;;18.70;10.87;;;;;;;-1.07;100.00;100304.69;5111858;28;20210;-79
2023/12/08 04:08:58;;;;;;;18.60;11.27;;;;;;;-1.05;100.00;100301.16;5115888;28;20196;-78
2023/12/08 04:11:24;;;;;;;20.87;12.27;;;;;;;-1.05;100.00;100316.00;5114493;28;20199;-77
2023/12/08 04:13:51;;;;;;;21.90;12.40;;;;;;;-1.03;100.00;100319.44;5115241;28;20208;-78
2023/12/08 04:16:17;;;;;;;19.27;11.70;;;;;;;-1.02;100.00;100305.47;5110460;28;20200;-78
2023/12/08 04:18:44;;;;;;;21.07;12.47;;;;;;;-0.98;100.00;100314.97;5106971;28;20231;-78
2023/12/08 04:21:17;;;;;;;19.37;11.80;;;;;;;-0.93;100.00;100312.28;5105455;28;20255;-78
2023/12/08 04:23:44;;;;;;;21.13;12.50;;;;;;;-0.90;100.00;100310.47;5109583;28;20204;-78
2023/12/08 04:26:11;;;;;;;19.13;12.07;;;;;;;-0.90;100.00;100313.06;5109345;28;20840;-76
2023/12/08 04:28:37;;;;;;;20.87;12.73;;;;;;;-0.83;100.00;100296.34;5109694;28;20278;-77
2023/12/08 04:31:05;;;;;;;21.87;12.17;;;;;;;-0.79;100.00;100284.06;5107520;28;20205;-78
2023/12/08 04:33:31;;;;;;;21.40;12.40;;;;;;;-0.78;100.00;100265.72;5108356;28;20219;-77
2023/12/08 04:35:58;;;;;;;17.50;11.70;;;;;;;-0.75;100.00;100272.63;5108489;28;20220;-78
2023/12/08 04:38:24;;;;;;;16.80;10.97;;;;;;;-0.72;100.00;100273.41;5111395;28;20199;-78
2023/12/08 04:40:52;;;;;;;18.57;12.03;;;;;;;-0.67;100.00;100272.44;5108111;28;20384;-78
2023/12/08 04:43:18;;;;;;;20.57;12.27;;;;;;;-0.71;100.00;100277.75;5113182;28;20200;-79
2023/12/08 04:45:45;;;;;;;18.60;11.50;;;;;;;-0.71;100.00;100280.34;5109212;28;20239;-78
2023/12/08 04:48:11;;;;;;;21.27;12.93;;;;;;;-0.71;100.00;100282.97;5108609;28;20204;-78
2023/12/08 04:50:38;;;;;;;20.50;12.03;;;;;;;-0.73;100.00;100270.84;5103701;28;20196;-77
2023/12/08 04:53:04;;;;;;;17.37;11.80;;;;;;;-0.73;100.00;100269.09;5103786;28;20227;-78
2023/12/08 04:55:31;;;;;;;19.60;11.57;;;;;;;-0.74;100.00;100277.84;5112777;28;20226;-77
2023/12/08 04:57:59;;;;;;;18.73;12.17;;;;;;;-0.74;100.00;100275.22;5103630;28;20301;-77
2023/12/08 05:00:26;;;;;;;18.70;11.43;;;;;;;-0.71;100.00;100274.25;5111295;28;20199;-78
2023/12/08 05:02:52;;;;;;;20.97;11.53;;;;;;;-0.70;100.00;100274.22;5110160;28;20200;-78
2023/12/08 05:05:19;;;;;;;18.37;11.23;;;;;;;-0.70;100.00;100279.47;5111462;28;20223;-78
2023/12/08 05:07:45;;;;;;;16.47;11.67;;;;;;;-0.66;100.00;100274.16;5111972;28;20210;-77
2023/12/08 05:10:12;;;;;;;20.20;12.00;;;;;;;-0.67;100.00;100277.66;5108688;28;20222;-77
2023/12/08 05:12:38;;;;;;;18.57;12.37;;;;;;;-0.66;100.00;100263.69;5110318;28;20235;-77
2023/12/08 05:15:07;;;;;;;15.73;10.43;;;;;;;-0.63;100.00;100264.50;5109108;28;20220;-78
2023/12/08 05:17:34;;;;;;;17.63;10.63;;;;;;;-0.62;100.00;100260.13;5110290;28;20208;-79
2023/12/08 05:20:02;;;;;;;16.37;10.90;;;;;;;-0.59;100.00;100270.53;5107112;28;20216;-78
2023/12/08 05:22:29;;;;;;;16.30;10.93;;;;;;;-0.54;100.00;100276.50;5104703;28;20196;-77
2023/12/08 05:24:55;;;;;;;15.63;10.50;;;;;;;-0.55;100.00;100275.66;5110177;28;20235;-76
2023/12/08 05:27:22;;;;;;;16.77;10.63;;;;;;;-0.52;100.00;100287.75;5107893;28;20200;-78
2023/12/08 05:29:48;;;;;;;18.87;11.13;;;;;;;-0.53;100.00;100284.28;5112178;28;20204;-78
2023/12/08 05:32:16;;;;;;;15.63;10.33;;;;;;;-0.54;100.00;100289.59;5107325;28;20227;-79
2023/12/08 05:34:42;;;;;;;19.97;11.97;;;;;;;-0.53;100.00;100284.28;5107890;28;20235;-78
2023/12/08 05:37:09;;;;;;;18.03;11.13;;;;;;;-0.51;100.00;100289.47;5105895;28;20216;-79
2023/12/08 05:39:35;;;;;;;17.27;10.90;;;;;;;-0.53;100.00;100280.81;5108736;28;20572;-78
2023/12/08 05:42:02;;;;;;;16.77;10.37;;;;;;;-0.52;100.00;100293.00;5100209;28;20204;-81
2023/12/08 05:44:29;;;;;;;18.47;11.27;;;;;;;-0.50;100.00;100285.97;5107510;28;20276;-78
2023/12/08 05:46:55;;;;;;;13.90;9.87;;;;;;;-0.53;100.00;100275.56;5106934;28;20201;-78
2023/12/08 05:49:23;;;;;;;17.43;11.10;;;;;;;-0.51;100.00;100268.56;5103426;28;20199;-79
2023/12/08 05:51:49;;;;;;;14.80;10.20;;;;;;;-0.50;100.00;100267.66;5105309;28;20223;-79
2023/12/08 05:54:16;;;;;;;17.27;10.67;;;;;;;-0.50;100.00;100257.19;5113555;28;20231;-79
2023/12/08 05:56:42;;;;;;;17.13;10.53;;;;;;;-0.49;100.00;100264.16;5112986;28;20227;-79
2023/12/08 05:59:09;;;;;;;15.77;9.47;;;;;;;-0.48;100.00;100264.13;5110799;28;20211;-78
2023/12/08 06:01:35;;;;;;;16.50;10.50;;;;;;;-0.47;100.00;100262.38;5104711;28;20208;-78
2023/12/08 06:04:02;;;;;;;16.53;10.30;;;;;;;-0.47;100.00;100265.84;5109874;28;20583;-79
2023/12/08 06:06:31;;;;;;;17.30;10.40;;;;;;;-0.45;100.00;100261.44;5108159;28;20204;-79
2023/12/08 06:08:58;;;;;;;17.43;10.67;;;;;;;-0.45;100.00;100263.19;5107557;28;20229;-78
2023/12/08 06:11:24;;;;;;;16.87;10.83;;;;;;;-0.43;100.00;100266.63;5111003;28;20216;-79
2023/12/08 06:13:51;;;;;;;17.07;10.97;;;;;;;-0.44;100.00;100260.53;5100090;28;20239;-79
2023/12/08 06:16:18;;;;;;;16.53;11.07;;;;;;;-0.42;100.00;100258.75;5104877;28;20220;-80
2023/12/08 06:18:45;;;;;;;18.33;11.00;;;;;;;-0.42;100.00;100257.88;5106489;28;20204;-79
2023/12/08 06:21:11;;;;;;;17.50;10.63;;;;;;;-0.39;100.00;100257.81;5106965;28;20683;-78
2023/12/08 06:23:40;;;;;;;15.80;10.33;;;;;;;-0.35;100.00;100259.44;5103475;28;20204;-78
2023/12/08 06:26:07;;;;;;;13.97;10.60;;;;;;;-0.32;100.00;100258.50;5110823;28;20226;-78
2023/12/08 06:28:33;;;;;;;16.57;10.30;;;;;;;-0.30;100.00;100261.94;5104342;28;20211;-79
2023/12/08 06:31:01;;;;;;;15.53;10.73;;;;;;;-0.29;100.00;100250.59;5106022;28;20211;-79
2023/12/08 06:33:27;;;;;;;19.27;10.80;;;;;;;-0.25;100.00;100262.69;5106407;28;20226;-78
2023/12/08 06:35:54;;;;;;;16.00;10.37;;;;;;;-0.24;100.00;100270.50;5102928;28;20224;-78
2023/12/08 06:38:20;;;;;;;16.80;10.50;;;;;;;-0.25;100.00;100266.16;5102443;28;20211;-79
2023/12/08 06:40:48;;;;;;;15.50;10.80;;;;;;;-0.22;100.00;100270.47;5101047;28;20280;-78
2023/12/08 06:43:15;;;;;;;14.43;9.80;;;;;;;-0.22;100.00;100262.63;5101658;28;20681;-79
2023/12/08 06:45:41;;;;;;;15.17;9.07;;;;;;;-0.20;100.00;100263.44;5104885;28;20219;-78
2023/12/08 06:48:08;;;;;;;15.80;9.87;;;;;;;-0.20;100.00;100258.22;5098073;28;20192;-78
2023/12/08 06:50:35;;;;;;;15.03;9.97;;;;;;;-0.19;100.00;100254.69;5102245;28;20212;-79
2023/12/08 06:53:01;;;;;;;14.10;9.57;;;;;;;-0.19;100.00;100252.94;5101634;28;20331;-79
2023/12/08 06:55:28;;;;;;;14.93;9.73;;;;;;;-0.19;100.00;100250.31;5102305;28;20216;-78
2023/12/08 06:57:56;;;;;;;18.27;9.43;;;;;;;-0.18;100.00;100246.78;5099086;28;20211;-79
2023/12/08 07:00:23;;;;;;;17.13;10.47;;;;;;;-0.17;100.00;100248.50;5102272;28;20200;-78
2023/12/08 07:02:49;;;;;;;16.53;10.30;;;;;;;-0.15;100.00;100246.69;5104803;28;20203;-79
2023/12/08 07:05:19;;;;;;;15.50;10.30;;;;;;;-0.12;100.00;100248.38;5103001;28;20238;-79
2023/12/08 07:07:46;;;;;;;14.80;10.03;;;;;;;-0.10;100.00;100249.22;5098531;28;20564;-78
2023/12/08 07:10:14;;;;;;;17.20;10.27;;;;;;;-0.10;100.00;100243.97;5099005;28;20720;-79
2023/12/08 07:12:42;;;;;;;15.07;10.27;;;;;;;-0.10;99.99;100249.22;5103665;28;20234;-79
2023/12/08 07:15:10;;;;;;;16.50;10.20;;;;;;;-0.04;100.00;100243.81;5103579;28;20697;-78
2023/12/08 07:17:37;;;;;;;17.77;9.83;;;;;;;-0.07;100.00;100249.13;5103255;28;20576;-79
2023/12/08 07:20:06;;;;;;;17.97;10.30;;;;;;;-0.04;100.00;100249.91;5095154;28;20244;-80
2023/12/08 07:22:32;;;;;;;14.57;9.53;;;;;;;-0.05;100.00;100237.72;5095950;28;20266;-78
2023/12/08 07:24:59;;;;;;;15.67;9.43;;;;;;;-0.08;100.00;100245.66;5103970;28;20211;-78
2023/12/08 07:27:25;;;;;;;12.43;9.70;;;;;;;-0.07;100.00;100243.91;5101711;28;20204;-78
2023/12/08 07:29:51;;;;;;;13.80;8.97;;;;;;;-0.06;100.00;100241.25;5099224;28;20698;-78
2023/12/08 07:32:19;;;;;;;14.30;8.73;;;;;;;-0.03;100.00;100235.94;5101187;28;20927;-78
2023/12/08 07:34:46;;;;;;;14.87;9.57;;;;;;;-0.01;100.00;100242.00;5099858;28;20235;-79
2023/12/08 07:37:12;;;;;;;13.10;8.97;;;;;;;0.02;100.00;100234.91;5096867;28;20199;-79
2023/12/08 07:39:39;;;;;;;13.00;9.07;;;;;;;0.02;100.00;100237.53;5096761;28;20199;-78
2023/12/08 07:42:06;;;;;;;14.23;9.63;;;;;;;0.02;100.00;100233.16;5097213;28;20196;-79
2023/12/08 07:44:34;;;;;;;15.63;9.80;;;;;;;0.00;100.00;100230.59;5103252;28;20262;-79
2023/12/08 07:47:01;;;;;;;13.87;8.70;;;;;;;0.00;100.00;100229.75;5097722;28;20815;-78
2023/12/08 07:49:29;;;;;;;15.03;9.83;;;;;;;-0.01;100.00;100225.41;5101262;28;20611;-79
2023/12/08 07:51:55;;;;;;;14.37;9.20;;;;;;;-0.01;100.00;100223.66;5103002;28;20218;-78
2023/12/08 07:54:22;;;;;;;15.27;9.50;;;;;;;-0.02;100.00;100215.84;5104157;28;20220;-79
2023/12/08 07:56:48;;;;;;;15.67;9.50;;;;;;;-0.02;100.00;100214.09;5102222;28;20215;-79
2023/12/08 07:59:14;;;;;;;13.30;8.80;;;;;;;0.00;100.00;100219.28;5095673;28;20221;-78
2023/12/08 08:01:41;;;;;;;14.30;8.10;;;;;;;0.00;100.00;100222.72;5100460;28;20672;-78
2023/12/08 08:04:07;;;;;;;15.80;9.30;;;;;;;-0.01;100.00;100228.03;5100585;28;20478;-80
2023/12/08 08:06:35;;;;;;;14.40;9.10;;;;;;;0.00;100.00;100229.75;5094942;28;20196;-78
2023/12/08 08:09:03;;;;;;;14.33;8.80;;;;;;;0.03;100.00;100221.78;5100431;28;20205;-79
2023/12/08 08:11:29;;;;;;;14.17;9.20;;;;;;;0.04;100.00;100215.66;5099373;28;20310;-78
2023/12/08 08:13:56;;;;;;;14.90;8.87;;;;;;;0.04;100.00;100231.38;5097912;28;20235;-78
2023/12/08 08:16:23;;;;;;;15.33;9.80;;;;;;;0.04;100.00;100230.50;5097291;28;20216;-78
2023/12/08 08:18:49;;;;;;;15.03;9.53;;;;;;;0.04;100.00;100238.38;5102290;28;20667;-78
2023/12/08 08:21:16;;;;;;;13.90;9.00;;;;;;;0.04;100.00;100247.06;5094606;28;20226;-78
2023/12/08 08:23:44;;;;;;;15.70;11.00;;;;;;;0.04;100.00;100254.94;5098556;28;20204;-78
2023/12/08 08:26:10;;;;;;;16.40;10.00;;;;;;;0.03;100.00;100254.97;5095485;28;20232;-78
2023/12/08 08:28:37;;;;;;;16.40;10.70;;;;;;;0.04;100.00;100254.06;5099383;28;20679;-79
2023/12/08 08:31:03;;;;;;;16.73;10.57;;;;;;;0.04;100.00;100254.94;5096774;28;20204;-78
2023/12/08 08:33:30;;;;;;;16.47;11.23;;;;;;;0.06;100.00;100265.38;5098869;28;20439;-78
2023/12/08 08:35:56;;;;;;;17.77;11.67;;;;;;;0.07;100.00;100259.22;5104018;28;20227;-78
2023/12/08 08:38:23;;;;;;;18.60;11.07;;;;;;;0.09;100.00;100265.28;5102066;28;20212;-78
2023/12/08 08:40:51;;;;;;;23.17;10.90;;;;;;;0.09;100.00;100258.28;5101928;28;20231;-78
2023/12/08 08:43:20;;;;;;;18.23;9.60;;;;;;;0.11;100.00;100256.50;5103637;28;20215;-80
2023/12/08 08:45:46;;;;;;;14.13;9.40;;;;;;;0.13;100.00;100256.47;5102626;28;20235;-78
2023/12/08 08:48:13;;;;;;;13.30;8.87;;;;;;;0.15;100.00;100268.63;5100389;28;20215;-78
2023/12/08 08:50:39;;;;;;;13.10;8.90;;;;;;;0.14;100.00;100261.66;5109511;28;20227;-79
2023/12/08 08:53:06;;;;;;;13.30;9.00;;;;;;;0.14;100.00;100256.41;5101427;28;20825;-79
2023/12/08 08:55:32;;;;;;;14.37;8.57;;;;;;;0.17;100.00;100260.72;5105285;28;20227;-78
2023/12/08 08:58:00;;;;;;;15.47;8.90;;;;;;;0.19;100.00;100258.88;5101447;28;20200;-78
2023/12/08 09:00:27;;;;;;;11.93;8.53;;;;;;;0.18;100.00;100247.56;5107290;28;20199;-78
2023/12/08 09:02:53;;;;;;;14.87;8.70;;;;;;;0.16;100.00;100248.53;5101502;28;20204;-78
2023/12/08 09:05:20;;;;;;;12.77;8.60;;;;;;;0.17;100.00;100250.25;5100030;28;20227;-78
2023/12/08 09:07:47;;;;;;;12.03;8.27;;;;;;;0.17;100.00;100248.50;5103395;28;20214;-78
2023/12/08 09:10:13;;;;;;;10.73;8.10;;;;;;;0.16;100.00;100261.63;5102714;28;20212;-78
2023/12/08 09:12:40;;;;;;;14.20;8.23;;;;;;;0.13;100.00;100261.69;5101250;28;20208;-78
2023/12/08 09:15:08;;;;;;;16.20;8.87;;;;;;;0.14;100.00;100263.41;5100650;28;20230;-79
2023/12/08 09:17:35;;;;;;;13.50;8.53;;;;;;;0.16;100.00;100256.38;5103078;28;20200;-79
2023/12/08 09:20:02;;;;;;;13.80;7.87;;;;;;;0.17;100.00;100251.09;5099412;28;20211;-79
2023/12/08 09:22:28;;;;;;;12.33;8.20;;;;;;;0.18;100.00;100255.41;5103014;28;20203;-79
2023/12/08 09:24:54;;;;;;;15.53;8.73;;;;;;;0.19;100.00;100253.66;5098878;28;20235;-78
2023/12/08 09:27:21;;;;;;;15.23;8.30;;;;;;;0.22;100.00;100250.97;5102982;28;20207;-79
2023/12/08 09:29:47;;;;;;;14.67;9.33;;;;;;;0.25;100.00;100263.97;5107632;28;20211;-77
2023/12/08 09:32:15;;;;;;;13.20;8.70;;;;;;;0.25;100.00;100264.84;5098221;28;20200;-79
2023/12/08 09:34:42;;;;;;;12.90;8.03;;;;;;;0.27;100.00;100265.66;5100983;28;20232;-78
2023/12/08 09:37:08;;;;;;;12.37;8.10;;;;;;;0.30;100.00;100255.09;5098908;28;20204;-78
2023/12/08 09:39:34;;;;;;;11.57;7.93;;;;;;;0.34;100.00;100248.88;5102170;28;20203;-78
2023/12/08 09:42:07;;;;;;;15.40;9.10;;;;;;;0.38;100.00;100249.63;5103345;28;20218;-77
2023/12/08 09:44:34;;;;;;;13.20;9.10;;;;;;;0.37;100.00;100239.19;5106678;28;20219;-78
2023/12/08 09:47:04;;;;;;;12.17;7.70;;;;;;;0.35;100.00;100241.88;5103480;28;20215;-77
2023/12/08 09:49:42;;;;;;;13.30;8.20;;;;;;;0.35;100.00;100236.63;5101149;28;20239;-79
2023/12/08 09:52:10;;;;;;;12.83;8.40;;;;;;;0.31;100.00;100233.25;5102011;28;20207;-79
2023/12/08 09:54:36;;;;;;;11.67;8.20;;;;;;;0.33;100.00;100227.97;5102318;28;20232;-78
2023/12/08 09:57:05;;;;;;;11.83;8.13;;;;;;;0.30;100.00;100225.44;5098538;28;20197;-78
2023/12/08 09:59:31;;;;;;;11.20;7.23;;;;;;;0.30;100.00;100220.19;5101024;28;20200;-78
2023/12/08 10:01:58;;;;;;;12.40;7.83;;;;;;;0.32;100.00;100211.38;5098922;28;20202;-79
2023/12/08 10:04:26;;;;;;;12.80;8.43;;;;;;;0.31;100.00;100214.06;5101122;28;20600;-78
2023/12/08 10:06:56;;;;;;;11.60;8.03;;;;;;;0.29;100.00;100205.38;5103873;28;20269;-78
2023/12/08 10:09:23;;;;;;;11.77;8.37;;;;;;;0.29;100.00;100211.47;5099135;28;20199;-78
2023/12/08 10:11:50;;;;;;;12.00;8.10;;;;;;;0.29;100.00;100205.38;5100264;28;20211;-78
2023/12/08 10:14:19;;;;;;;10.97;7.70;;;;;;;0.28;100.00;100207.13;5097568;28;20743;-78
2023/12/08 10:16:47;;;;;;;13.63;7.90;;;;;;;0.30;100.00;100201.84;5102793;28;20211;-78
2023/12/08 10:19:14;;;;;;;11.00;7.47;;;;;;;0.27;100.00;100201.94;5100830;28;20212;-78
2023/12/08 10:21:40;;;;;;;13.80;8.10;;;;;;;0.27;100.00;100207.16;5101432;28;20214;-78
2023/12/08 10:24:09;;;;;;;11.53;7.93;;;;;;;0.28;100.00;100201.91;5100808;28;20216;-79
2023/12/08 10:26:35;;;;;;;11.33;7.70;;;;;;;0.28;100.00;100203.66;5100534;28;20207;-78
2023/12/08 10:29:02;;;;;;;12.47;7.90;;;;;;;0.29;100.00;100202.75;5098806;28;20204;-79
2023/12/08 10:31:29;;;;;;;9.70;6.77;;;;;;;0.30;100.00;100194.00;5096373;28;20200;-80
2023/12/08 10:33:56;;;;;;;11.67;8.00;;;;;;;0.30;100.00;100188.75;5102974;28;20694;-78
2023/12/08 10:36:23;;;;;;;11.70;8.00;;;;;;;0.31;100.00;100187.84;5104575;28;20200;-78
2023/12/08 10:38:52;;;;;;;12.47;7.53;;;;;;;0.30;100.00;100179.13;5099275;28;20683;-76
2023/12/08 10:41:20;;;;;;;10.53;7.13;;;;;;;0.33;100.00;100178.19;5102440;28;20204;-77
2023/12/08 10:43:46;;;;;;;11.80;7.60;;;;;;;0.39;100.00;100167.53;5097651;28;20215;-77
2023/12/08 10:46:13;;;;;;;11.17;7.50;;;;;;;0.38;100.00;100163.19;5100373;28;20853;-77
2023/12/08 10:48:40;;;;;;;11.80;7.27;;;;;;;0.43;100.00;100168.28;5101211;28;20662;-78
2023/12/08 10:51:13;;;;;;;13.90;8.00;;;;;;;0.45;100.00;100166.50;5097175;28;20682;-78
2023/12/08 10:53:39;;;;;;;10.70;7.33;;;;;;;0.49;100.00;100175.97;5102897;28;21220;-77
2023/12/08 10:56:09;;;;;;;11.90;7.77;;;;;;;0.49;100.00;100171.59;5100701;28;20730;-77
2023/12/08 10:58:41;;;;;;;11.67;7.07;;;;;;;0.50;100.00;100173.31;5100755;28;20645;-77
2023/12/08 11:01:12;;;;;;;12.40;7.47;;;;;;;0.50;100.00;100172.47;5100844;28;20208;-77
2023/12/08 11:03:40;;;;;;;12.97;7.47;;;;;;;0.50;100.00;100173.31;5098279;28;20204;-77
2023/12/08 11:06:09;;;;;;;11.77;7.83;;;;;;;0.53;100.00;100161.91;5096973;28;20262;-78
2023/12/08 11:08:36;;;;;;;14.33;8.83;;;;;;;0.52;100.00;100161.03;5100567;28;20240;-77